• Join FlightAware (Why Join?)
  • Login
  • US Flag 
10:46AM EDT


 

Airport Tracker/Info


-or-


 

Live Flight TrackerFlight Track Log ✈ MAL8056 ✈ 02-May-2013 ✈ CYSB - CYTS

Flight Track Log - Related Links

Times and Time Zones

All times are in EDT time to prevent confusion due to time zone crossing. See the MAL8056 flight status page for this flight to view local times or setup timezone preferences in your user account.

Time Position Orientation Groundspeed Altitude Reporting Facility
EDT Latitude Longitude Course Direction KTS MPH feet Rate Location/Type
02:53PM 46.6167 -80.8167 360° North 100 115 2,600  Level Toronto Center
02:54PM 46.6500 -80.8167 360° North 130 150 3,300 780 Climbing Toronto Center
02:55PM 46.7000 -80.8167 360° North 130 150 4,200 900 Climbing Toronto Center
02:56PM 46.7333 -80.8167 360° North 130 150 5,100 900 Climbing Toronto Center
02:57PM 46.7667 -80.8167 360° North 120 138 6,100 960 Climbing Toronto Center
02:58PM 46.8000 -80.8167 360° North 130 150 7,100 900 Climbing Toronto Center
02:59PM 46.8333 -80.8500 326° Northwest 130 150 8,000 420 Climbing Toronto Center
03:00PM 46.8833 -80.8500 360° North 150 173 8,000  Level Toronto Center
03:01PM 46.9333 -80.8833 336° Northwest 180 207 8,000  Level Toronto Center
03:02PM 46.9833 -80.8833 360° North 180 207 8,000  Level Toronto Center
03:03PM 47.0333 -80.9000 347° North 180 207 8,000  Level Toronto Center
03:04PM 47.0833 -80.9000 360° North 180 207 8,000  Level Toronto Center
03:05PM 47.1167 -80.9333 326° Northwest 180 207 8,000  Level Toronto Center
03:06PM 47.1500 -80.9333 360° North 190 219 8,000  Level Toronto Center
03:07PM 47.2167 -80.9500 350° North 180 207 8,000  Level Toronto Center
03:08PM 47.2667 -80.9500 360° North 190 219 8,000  Level Toronto Center
03:09PM 47.3167 -80.9833 336° Northwest 180 207 8,100  Climbing Toronto Center
03:10PM 47.3667 -81.0167 336° Northwest 180 207 8,000 -60 Descending Toronto Center
03:11PM 47.4167 -81.0167 360° North 180 207 8,000 -60 Level Toronto Center
03:12PM 47.4667 -81.0333 347° North 190 219 7,900  Descending Toronto Center
03:13PM 47.5167 -81.0333 360° North 180 207 8,000  Climbing Toronto Center
03:14PM 47.5667 -81.0667 336° Northwest 190 219 7,900  Descending Toronto Center
03:15PM 47.6167 -81.0667 360° North 190 219 8,000  Climbing Toronto Center
03:16PM 47.6667 -81.0833 347° North 180 207 8,000  Level Toronto Center
03:20PM 47.7324 -81.1162 341° North  Level FlightAware Approximate
03:27PM 48.0502 -81.2130 349° North  Level FlightAware Approximate
03:28PM 48.0956 -81.2269 348° North  Level FlightAware Approximate
03:29PM 48.1408 -81.2414 347° North  Level FlightAware Approximate
03:30PM 48.1860 -81.2564 347° North  Level FlightAware Approximate
03:31PM 48.2314 -81.2696 352° North  Level FlightAware Approximate
03:32PM 48.2773 -81.2788 352° North  Level FlightAware Approximate
03:33PM 48.3231 -81.2879 352° North  Level FlightAware Approximate
03:34PM 48.3690 -81.2971 352° North  Level FlightAware Approximate
03:35PM 48.4141 -81.3123 345° North  Level FlightAware Approximate
03:36PM 48.4588 -81.3302 345° North  Level FlightAware Approximate
03:37PM 48.5045 -81.3409 352° North  Level FlightAware Approximate
03:38PM 48.5503 -81.3503 327° Northwest  Level FlightAware Approximate
03:39PM 48.5667 -81.3667 North  Level FlightAware Approximate
03:40PM 48.5697 -81.3767 North  Level Estimated
03:41PM 48.5697 -81.3767 North  Level Estimated
03:42PM 48.5697 -81.3767 North  Level Estimated
03:43PM 48.5697 -81.3767 North  Level Estimated
03:44PM 48.5697 -81.3767 North  Level Estimated
03:45PM 48.5697 -81.3767 North  Level Estimated
03:46PM 48.5697 -81.3767 North  Level Estimated
03:47PM 48.5697 -81.3767 North  Level Estimated
03:48PM 48.5697 -81.3767 North  Level Estimated
03:49PM 48.5697 -81.3767 North  Level Estimated
03:50PM 48.5697 -81.3767 North  Level Estimated